• Join FlightAware (Why Join?)
  • Login
  • US Flag 
02:34AM EST


 

Airport Tracker/Info


-or-


 

Live Flight TrackerFlight Track Log ✈ OPT314 ✈ 02-May-2013 ✈ KMQJ - KRDU

Flight Track Log - Related Links

Times and Time Zones

All times are in EDT time to prevent confusion due to time zone crossing. See the OPT314 flight status page for this flight to view local times or setup timezone preferences in your user account.

Time Position Orientation Groundspeed Altitude Reporting Facility
EDT Latitude Longitude Course Direction KTS MPH feet Rate Location/Type
07:27PM 39.8483 -85.8775 110° East 189 217 2,300  Level Indianapolis Center
07:28PM 39.8333 -85.7997 104° East 223 257 5,800 2,760 Climbing Indianapolis Center
07:29PM 39.8058 -85.7144 113° Southeast 240 276 8,000 2,040 Climbing Indianapolis Center
07:30PM 39.7725 -85.6206 115° Southeast 279 321 10,000 2,460 Climbing Indianapolis Center
07:31PM 39.7375 -85.5211 115° Southeast 298 343 13,200 3,360 Climbing Indianapolis Center
07:32PM 39.6989 -85.4281 118° Southeast 294 338 17,000 2,760 Climbing Indianapolis Center
07:37PM 39.5020 -84.8120 118° Southeast 376 433 31,400 2,280 Climbing FlightAware
07:38PM 39.4890 -84.7260 101° East 376 433 31,400  Level FlightAware
07:39PM 39.4780 -84.6500 101° East 376 433 31,400  Level FlightAware
07:40PM 39.4630 -84.5560 102° East 376 433 31,400  Level FlightAware
07:40PM 39.4520 -84.4810 101° East 376 433 31,400 4,500 Level FlightAware
07:41PM 39.3550 -84.3540 135° Southeast 379 436 37,800 4,980 Climbing FlightAware
07:42PM 39.3200 -84.2770 120° Southeast 386 444 38,500 540 Climbing FlightAware
07:42PM 39.2920 -84.2100 118° Southeast 386 444 38,500  Level FlightAware
07:43PM 39.2550 -84.1240 119° Southeast 386 444 38,500  Level FlightAware
07:44PM 39.2330 -84.0730 119° Southeast 386 444 38,500  Level FlightAware
07:44PM 39.1960 -83.9870 119° Southeast 386 444 38,500 1,560 Level FlightAware
07:45PM 39.1330 -83.8520 121° Southeast 399 459 41,000 1,560 Climbing FlightAware
07:46PM 39.0860 -83.7460 120° Southeast 398 458 41,000  Level FlightAware
07:47PM 39.0390 -83.6420 120° Southeast 394 453 41,000  Level FlightAware
07:48PM 38.9880 -83.5290 120° Southeast 391 450 41,000  Level FlightAware
07:48PM 38.9510 -83.4470 120° Southeast 389 448 41,000  Level FlightAware
07:49PM 38.9160 -83.3690 120° Southeast 387 445 41,000  Level FlightAware
07:50PM 38.8750 -83.2800 121° Southeast 386 444 41,000  Level FlightAware
07:51PM 38.8390 -83.2010 120° Southeast 384 442 41,000  Level FlightAware
07:51PM 38.7990 -83.1120 120° Southeast 384 442 41,000  Level FlightAware
07:52PM 38.7630 -83.0330 120° Southeast 384 442 41,000  Level FlightAware
07:53PM 38.7260 -82.9530 121° Southeast 383 441 41,000  Level FlightAware
07:53PM 38.6860 -82.8670 121° Southeast 383 441 41,000 -240 Level FlightAware
07:54PM 38.6500 -82.7870 120° Southeast 388 447 40,700 -780 Descending FlightAware
07:55PM 38.6130 -82.6680 112° Southeast 410 472 39,800 -960 Descending FlightAware
07:56PM 38.5910 -82.5750 107° East 419 482 39,200 -960 Descending FlightAware
07:56PM 38.5650 -82.4640 107° East 427 491 38,500 -1,020 Descending FlightAware
07:57PM 38.5430 -82.3690 106° East 432 497 37,800 -1,020 Descending FlightAware
07:58PM 38.5190 -82.2580 105° East 437 503 37,100 -1,020 Descending FlightAware
07:58PM 38.4980 -82.1600 105° East 436 502 36,400 -1,020 Descending FlightAware
07:59PM 38.4730 -82.0440 105° East 437 503 35,700 -1,020 Descending FlightAware
08:00PM 38.4460 -81.9480 110° East 436 502 35,000 -1,080 Descending FlightAware
08:01PM 38.4000 -81.8640 125° Southeast 435 501 34,300 -1,020 Descending FlightAware
08:01PM 38.3470 -81.7710 126° Southeast 436 502 33,600 -960 Descending FlightAware
08:02PM 38.3000 -81.6890 126° Southeast 443 510 33,000 -1,020 Descending FlightAware
08:03PM 38.2520 -81.6050 126° Southeast 435 501 32,300 -720 Descending FlightAware
08:03PM 38.1990 -81.5140 127° Southeast 421 484 32,000 -240 Descending FlightAware
08:04PM 38.1510 -81.4320 127° Southeast 426 490 32,000  Level FlightAware
08:05PM 38.0990 -81.3420 126° Southeast 439 505 32,000 -120 Level FlightAware
08:05PM 38.0510 -81.2590 126° Southeast 450 518 31,900 -600 Descending FlightAware
08:06PM 38.0010 -81.1740 127° Southeast 443 510 31,200 -1,080 Descending FlightAware
08:07PM 37.9440 -81.0770 127° Southeast 441 507 30,400 -1,020 Descending FlightAware
08:08PM 37.8900 -80.9850 127° Southeast 451 519 29,700 -1,020 Descending FlightAware
08:08PM 37.8480 -80.9140 127° Southeast 444 511 29,100 -480 Descending FlightAware
08:09PM 37.7990 -80.8280 126° Southeast 444 511 29,100  Level FlightAware
08:10PM 37.7580 -80.7570 126° Southeast 444 511 29,100  Level FlightAware
08:10PM 37.7170 -80.6850 126° Southeast 444 511 29,100  Level FlightAware
08:11PM 37.6650 -80.5960 126° Southeast 444 511 29,100  Level FlightAware
08:12PM 37.6240 -80.5250 126° Southeast 444 511 29,100 -840 Level FlightAware
08:13PM 37.5406 -80.4033 126° Southeast 448 516 28,000 -1,200 Descending Washington Center
08:14PM 37.4703 -80.2864 127° Southeast 442 509 27,100 -1,020 Descending Washington Center
08:14PM 37.3919 -80.1533 127° Southeast 429 494 26,000 -1,020 Descending Washington Center
08:15PM 37.3169 -80.0367 129° Southeast 429 494 25,100 -900 Descending Washington Center
08:17PM 37.2442 -79.9175 127° Southeast 429 494 24,200 -840 Descending Washington Center
08:18PM 37.1789 -79.8147 129° Southeast 429 494 23,500 -900 Descending Washington Center
08:19PM 37.1097 -79.7042 128° Southeast 419 482 22,500 -1,020 Descending Washington Center
08:19PM 37.0428 -79.5914 127° Southeast 408 470 21,600 -960 Descending Washington Center
08:21PM 36.9777 -79.4942 128° Southeast  Level FlightAware Approximate
08:21PM 36.8997 -79.3683 128° Southeast 403 464 19,800  Level Washington Center
08:22PM 36.8342 -79.2667 129° Southeast 382 440 19,100 -780 Descending Washington Center
08:23PM 36.7722 -79.1703 129° Southeast 370 426 18,300 -780 Descending Washington Center
08:24PM 36.7186 -79.0822 127° Southeast 364 419 17,600 2,820 Descending Washington Center
08:26PM 36.6353 -79.0086 145° Southeast 332 382 24,000 -2,280 Climbing Washington Center
08:27PM 36.5422 -78.9814 167° South 332 382 13,100 -2,280 Descending Washington Center
08:33PM 35.9970 -78.8410 167° South 274 315 7,700 -840 Descending FlightAware
08:33PM 35.9620 -78.8540 197° South 253 291 7,500 -660 Descending FlightAware
08:34PM 35.9390 -78.8740 215° Southwest 240 276 7,100 -1,140 Descending FlightAware
08:34PM 35.9140 -78.8960 215° Southwest 233 268 6,500 -1,320 Descending FlightAware
08:35PM 35.8840 -78.9320 224° Southwest 226 260 5,600 -2,340 Descending FlightAware
08:36PM 35.8564 -78.9544 224° Southwest 233 268 3,500 -2,580 Descending Washington Center
08:36PM 35.8356 -78.9536 178° South 187 215 3,100 -960 Descending Washington Center
08:36PM 35.8131 -78.9319 142° Southeast 155 178 2,600 -720 Descending Washington Center
08:37PM 35.8075 -78.9164 114° Southeast 150 173 2,400 -480 Descending Washington Center
08:38PM 35.8128 -78.8706 82° East 118 136 2,000 -480 Descending Washington Center
08:39PM 35.8303 -78.8406 54° Northeast 100 115 1,500 -600 Descending Washington Center
08:40PM 35.8519 -78.8158 43° Northeast 113 130 800 -720 Descending Washington Center
08:42PM 35.8667 -78.7833 90° East  Level FlightAware Approximate
08:49PM 35.8776 -78.7875 90° East  Level Estimated